createdAt,value
2017-03-19T00:00:28.714Z,21.77
2017-03-19T00:01:39.285Z,21.86
2017-03-19T00:02:49.528Z,21.83
2017-03-19T00:03:59.460Z,21.82
2017-03-19T00:05:09.376Z,21.75
2017-03-19T00:06:19.630Z,21.83
2017-03-19T00:07:29.282Z,21.88
2017-03-19T00:08:39.518Z,21.8
2017-03-19T00:09:49.754Z,21.72
2017-03-19T00:10:59.679Z,21.8
2017-03-19T00:12:09.299Z,21.74
2017-03-19T00:13:18.754Z,21.79
2017-03-19T00:14:28.375Z,21.75
2017-03-19T00:15:38.303Z,21.86
2017-03-19T00:16:47.927Z,21.77
2017-03-19T00:17:57.554Z,21.72
2017-03-19T00:19:07.636Z,21.75
2017-03-19T00:20:17.886Z,21.84
2017-03-19T00:21:27.811Z,21.75
2017-03-19T00:22:38.041Z,21.74
2017-03-19T00:23:48.295Z,21.77
2017-03-19T00:24:58.708Z,21.84
2017-03-19T00:26:08.943Z,21.77
2017-03-19T00:27:18.899Z,21.83
2017-03-19T00:28:28.233Z,21.69
2017-03-19T00:29:38.173Z,21.91
2017-03-19T00:30:48.248Z,21.8
2017-03-19T00:31:58.477Z,21.75
2017-03-19T00:33:08.730Z,21.79
2017-03-19T00:34:18.658Z,21.79
2017-03-19T00:35:27.968Z,21.8
2017-03-19T00:36:37.383Z,21.9
2017-03-19T00:37:47.332Z,21.79
2017-03-19T00:38:57.587Z,21.9
2017-03-19T00:40:07.268Z,21.79
2017-03-19T00:41:17.520Z,21.86
2017-03-19T00:42:27.595Z,21.75
2017-03-19T00:43:37.851Z,21.86
2017-03-19T00:44:48.098Z,21.79
2017-03-19T00:45:57.724Z,21.88
2017-03-19T00:47:07.965Z,21.79
2017-03-19T00:48:19.051Z,21.79
2017-03-19T00:49:28.982Z,21.84
2017-03-19T00:50:38.903Z,21.86
2017-03-19T00:51:48.825Z,21.9
2017-03-19T00:52:58.767Z,21.88
2017-03-19T00:54:09.501Z,21.8
2017-03-19T00:55:19.417Z,21.82
2017-03-19T00:56:29.646Z,21.75
2017-03-19T00:57:39.584Z,21.75
2017-03-19T00:58:49.544Z,21.74
2017-03-19T01:00:00.047Z,21.79
2017-03-19T01:01:10.295Z,21.71
2017-03-19T01:02:20.508Z,21.72
2017-03-19T01:03:30.453Z,21.77
2017-03-19T01:04:40.414Z,21.77
2017-03-19T01:05:50.785Z,21.77
2017-03-19T01:07:00.737Z,21.69
2017-03-19T01:08:10.985Z,21.83
2017-03-19T01:09:20.932Z,21.77
2017-03-19T01:10:31.168Z,21.86
2017-03-19T01:11:40.971Z,21.77
2017-03-19T01:12:51.252Z,21.9
2017-03-19T01:14:01.496Z,21.9
2017-03-19T01:15:11.758Z,21.88
2017-03-19T01:16:21.692Z,21.82
2017-03-19T01:17:32.278Z,21.79
2017-03-19T01:18:41.914Z,21.84
2017-03-19T01:19:51.843Z,21.84
2017-03-19T01:21:01.785Z,21.91
2017-03-19T01:22:12.058Z,21.83
2017-03-19T01:23:22.337Z,21.77
2017-03-19T01:24:32.283Z,21.84
2017-03-19T01:25:42.523Z,21.84
2017-03-19T01:26:52.478Z,21.84
2017-03-19T01:28:02.113Z,21.84
2017-03-19T01:29:12.717Z,21.8
2017-03-19T01:30:22.642Z,21.86
2017-03-19T01:31:32.894Z,21.86
2017-03-19T01:32:42.812Z,21.74
2017-03-19T01:33:52.741Z,21.8
2017-03-19T01:35:03.856Z,21.86
2017-03-19T01:36:13.808Z,21.88
2017-03-19T01:37:23.740Z,21.92
2017-03-19T01:38:33.963Z,21.82
2017-03-19T01:39:43.607Z,21.79
2017-03-19T01:40:53.991Z,21.75
2017-03-19T01:42:04.595Z,21.82
2017-03-19T01:43:13.940Z,21.79
2017-03-19T01:44:24.195Z,21.77
2017-03-19T01:45:34.125Z,21.75
2017-03-19T01:46:44.550Z,21.79
2017-03-19T01:47:54.176Z,21.8
2017-03-19T01:49:04.439Z,21.79
2017-03-19T01:50:14.674Z,21.77
2017-03-19T01:51:24.322Z,21.79
2017-03-19T01:52:34.085Z,21.79
2017-03-19T01:53:43.728Z,21.77
2017-03-19T01:54:53.342Z,21.77
2017-03-19T01:56:03.622Z,21.75
2017-03-19T01:57:13.903Z,21.8
2017-03-19T01:58:23.505Z,21.82
2017-03-19T01:59:33.441Z,21.75
2017-03-19T02:00:43.369Z,21.83
2017-03-19T02:01:53.015Z,21.75
2017-03-19T02:03:02.928Z,21.79
2017-03-19T02:04:12.695Z,21.82
2017-03-19T02:05:22.953Z,21.77
2017-03-19T02:06:33.192Z,21.82
2017-03-19T02:07:43.416Z,21.77
2017-03-19T02:08:53.342Z,21.77
2017-03-19T02:10:04.301Z,21.83
2017-03-19T02:11:14.519Z,21.72
2017-03-19T02:12:24.434Z,21.77
2017-03-19T02:13:34.672Z,21.82
2017-03-19T02:14:44.302Z,21.77
2017-03-19T02:15:54.865Z,21.77
2017-03-19T02:17:05.072Z,21.8
2017-03-19T02:18:14.991Z,21.8
2017-03-19T02:19:24.921Z,21.8
2017-03-19T02:20:34.532Z,21.74
2017-03-19T02:21:44.596Z,21.75
2017-03-19T02:22:54.534Z,21.79
2017-03-19T02:24:04.144Z,21.71
2017-03-19T02:25:13.490Z,21.77
2017-03-19T02:26:23.711Z,21.74
2017-03-19T02:27:35.000Z,21.79
2017-03-19T02:28:44.920Z,21.77
2017-03-19T02:29:54.842Z,21.74
2017-03-19T02:31:05.067Z,21.77
2017-03-19T02:32:14.683Z,21.77
2017-03-19T02:33:25.255Z,21.77
2017-03-19T02:34:35.506Z,21.74
2017-03-19T02:35:44.810Z,21.72
2017-03-19T02:36:55.024Z,21.75
2017-03-19T02:38:05.282Z,21.75
2017-03-19T02:39:15.662Z,21.72
2017-03-19T02:40:25.596Z,21.69
2017-03-19T02:41:35.228Z,21.79
2017-03-19T02:42:45.143Z,21.74
2017-03-19T02:43:55.062Z,21.68
2017-03-19T02:45:05.127Z,21.71
2017-03-19T02:46:15.345Z,21.74
2017-03-19T02:47:25.264Z,21.79
2017-03-19T02:48:35.509Z,21.77
2017-03-19T02:49:45.117Z,21.75
2017-03-19T02:50:55.386Z,21.8
2017-03-19T02:52:05.310Z,21.77
2017-03-19T02:53:15.243Z,21.74
2017-03-19T02:54:24.864Z,21.72
2017-03-19T02:55:35.085Z,21.74
2017-03-19T02:56:45.298Z,21.75
2017-03-19T02:57:55.230Z,21.74
2017-03-19T02:59:04.847Z,21.75
2017-03-19T03:00:15.072Z,21.74
2017-03-19T03:01:25.303Z,21.77
2017-03-19T03:02:35.475Z,21.74
2017-03-19T03:03:44.814Z,21.67
2017-03-19T03:04:55.040Z,21.75
2017-03-19T03:06:04.960Z,21.68
2017-03-19T03:07:15.184Z,21.72
2017-03-19T03:08:24.947Z,21.79
2017-03-19T03:09:35.175Z,21.62
2017-03-19T03:10:45.087Z,21.72
2017-03-19T03:11:55.325Z,21.72
2017-03-19T03:13:05.240Z,21.71
2017-03-19T03:14:15.259Z,21.79
2017-03-19T03:15:24.577Z,21.74
2017-03-19T03:16:34.803Z,21.65
2017-03-19T03:17:44.415Z,21.74
2017-03-19T03:18:54.339Z,21.69
2017-03-19T03:20:04.409Z,21.69
2017-03-19T03:21:13.771Z,21.72
2017-03-19T03:22:23.687Z,21.71
2017-03-19T03:23:33.910Z,21.69
2017-03-19T03:24:43.838Z,21.69
2017-03-19T03:25:53.915Z,21.68
2017-03-19T03:27:03.522Z,21.72
2017-03-19T03:28:13.138Z,21.65
2017-03-19T03:29:23.359Z,21.67
2017-03-19T03:30:33.288Z,21.67
2017-03-19T03:31:43.156Z,21.65
2017-03-19T03:32:52.782Z,21.65
2017-03-19T03:34:02.699Z,21.67
2017-03-19T03:35:12.670Z,21.69
2017-03-19T03:36:22.621Z,21.67
2017-03-19T03:37:32.785Z,21.65
2017-03-19T03:38:43.012Z,21.62
2017-03-19T03:39:52.624Z,21.65
2017-03-19T03:41:02.848Z,21.72
2017-03-19T03:42:13.065Z,21.65
2017-03-19T03:43:23.654Z,21.67
2017-03-19T03:44:33.579Z,21.67
2017-03-19T03:45:43.501Z,21.65
2017-03-19T03:46:53.433Z,21.62
2017-03-19T03:48:03.356Z,21.65
2017-03-19T03:49:13.222Z,21.64
2017-03-19T03:50:23.129Z,21.65
2017-03-19T03:51:33.065Z,21.64
2017-03-19T03:52:43.293Z,21.62
2017-03-19T03:53:52.283Z,21.64
2017-03-19T03:55:02.761Z,21.64
2017-03-19T03:56:12.976Z,21.64
2017-03-19T03:57:22.592Z,21.69
2017-03-19T03:58:32.510Z,21.67
2017-03-19T03:59:42.733Z,21.64
2017-03-19T04:00:53.668Z,21.68
2017-03-19T04:02:03.291Z,21.62
2017-03-19T04:03:13.525Z,21.62
2017-03-19T04:04:23.450Z,21.68
2017-03-19T04:05:33.369Z,21.65
2017-03-19T04:06:43.226Z,21.64
2017-03-19T04:07:52.854Z,21.65
2017-03-19T04:09:02.828Z,21.69
2017-03-19T04:10:12.459Z,21.65
2017-03-19T04:11:21.767Z,21.64
2017-03-19T04:12:31.822Z,21.64
2017-03-19T04:13:41.734Z,21.65
2017-03-19T04:14:51.647Z,21.68
2017-03-19T04:16:01.877Z,21.62
2017-03-19T04:17:11.826Z,21.64
2017-03-19T04:18:22.330Z,21.65
2017-03-19T04:19:32.259Z,21.67
2017-03-19T04:20:42.479Z,21.61
2017-03-19T04:21:52.727Z,21.65
2017-03-19T04:23:02.955Z,21.62
2017-03-19T04:24:13.226Z,21.67
2017-03-19T04:25:23.136Z,21.64
2017-03-19T04:26:33.056Z,21.59
2017-03-19T04:27:43.315Z,21.64
2017-03-19T04:28:53.227Z,21.62
2017-03-19T04:30:03.508Z,21.62
2017-03-19T04:31:12.801Z,21.65
2017-03-19T04:32:22.711Z,21.62
2017-03-19T04:33:32.328Z,21.65
2017-03-19T04:34:41.956Z,21.59
2017-03-19T04:35:52.179Z,21.59
2017-03-19T04:37:01.781Z,21.62
2017-03-19T04:38:11.083Z,21.59
2017-03-19T04:39:21.006Z,21.61
2017-03-19T04:40:30.940Z,21.59
2017-03-19T04:41:41.305Z,21.5
2017-03-19T04:42:51.210Z,21.58
2017-03-19T04:44:01.131Z,21.59
2017-03-19T04:45:10.749Z,21.61
2017-03-19T04:46:20.971Z,21.59
2017-03-19T04:47:31.140Z,21.61
2017-03-19T04:48:41.048Z,21.61
2017-03-19T04:49:50.663Z,21.52
2017-03-19T04:51:00.885Z,21.58
2017-03-19T04:52:11.217Z,21.65
2017-03-19T04:53:21.613Z,21.58
2017-03-19T04:54:31.237Z,21.56
2017-03-19T04:55:41.156Z,21.56
2017-03-19T04:56:50.763Z,21.53
2017-03-19T04:58:00.681Z,21.59
2017-03-19T04:59:11.016Z,21.58
2017-03-19T05:00:20.959Z,21.59
2017-03-19T05:01:31.181Z,21.59
2017-03-19T05:02:41.126Z,21.59
2017-03-19T05:03:51.074Z,21.59
2017-03-19T05:05:01.291Z,21.56
2017-03-19T05:06:10.596Z,21.59
2017-03-19T05:07:20.518Z,21.54
2017-03-19T05:08:30.133Z,21.53
2017-03-19T05:09:40.060Z,21.53
2017-03-19T05:10:50.659Z,21.56
2017-03-19T05:12:00.583Z,21.52
2017-03-19T05:13:10.803Z,21.53
2017-03-19T05:14:20.728Z,21.52
2017-03-19T05:15:30.989Z,21.54
2017-03-19T05:16:41.262Z,21.54
2017-03-19T05:17:51.176Z,21.53
2017-03-19T05:19:01.406Z,21.54
2017-03-19T05:20:11.627Z,21.52
2017-03-19T05:21:21.853Z,21.52
2017-03-19T05:22:31.849Z,21.54
2017-03-19T05:23:42.090Z,21.53
2017-03-19T05:24:51.727Z,21.54
2017-03-19T05:26:01.343Z,21.54
2017-03-19T05:27:11.557Z,21.54
2017-03-19T05:28:21.278Z,21.56
2017-03-19T05:29:31.191Z,21.53
2017-03-19T05:30:41.108Z,21.52
2017-03-19T05:31:51.325Z,21.59
2017-03-19T05:33:01.238Z,21.56
2017-03-19T05:34:11.597Z,21.58
2017-03-19T05:35:21.812Z,21.58
2017-03-19T05:36:31.732Z,21.58
2017-03-19T05:37:41.351Z,21.56
2017-03-19T05:38:51.262Z,21.59
2017-03-19T05:40:01.333Z,21.58
2017-03-19T05:41:11.237Z,21.56
2017-03-19T05:42:21.153Z,21.58
2017-03-19T05:43:30.447Z,21.58
2017-03-19T05:44:40.057Z,21.56
2017-03-19T05:45:50.419Z,21.54
2017-03-19T05:46:59.709Z,21.54
2017-03-19T05:48:09.623Z,21.52
2017-03-19T05:49:19.843Z,21.64
2017-03-19T05:50:29.828Z,21.56
2017-03-19T05:51:40.460Z,21.5
2017-03-19T05:52:50.379Z,21.58
2017-03-19T05:54:00.310Z,21.59
2017-03-19T05:55:09.926Z,21.58
2017-03-19T05:56:19.533Z,21.52
2017-03-19T05:57:29.593Z,21.52
2017-03-19T05:58:39.510Z,21.5
2017-03-19T05:59:49.744Z,21.52
2017-03-19T06:00:59.363Z,21.54
2017-03-19T06:02:08.969Z,21.54
2017-03-19T06:03:19.924Z,21.56
2017-03-19T06:04:29.539Z,21.52
2017-03-19T06:05:39.453Z,21.54
2017-03-19T06:06:49.668Z,21.56
2017-03-19T06:07:59.280Z,21.49
2017-03-19T06:09:09.650Z,21.5
2017-03-19T06:10:19.561Z,21.56
2017-03-19T06:11:29.486Z,21.54
2017-03-19T06:12:39.718Z,21.58
2017-03-19T06:13:49.932Z,21.53
2017-03-19T06:15:00.546Z,21.56
2017-03-19T06:16:10.448Z,21.54
2017-03-19T06:17:20.673Z,21.54
2017-03-19T06:18:30.326Z,21.62
2017-03-19T06:19:39.646Z,21.54
2017-03-19T06:20:49.279Z,21.53
2017-03-19T06:21:59.500Z,21.54
2017-03-19T06:23:09.421Z,21.53
2017-03-19T06:24:19.035Z,21.56
2017-03-19T06:25:28.952Z,21.58
2017-03-19T06:26:39.121Z,21.52
2017-03-19T06:27:49.360Z,21.58
2017-03-19T06:28:58.974Z,21.53
2017-03-19T06:30:08.601Z,21.54
2017-03-19T06:31:18.830Z,21.56
2017-03-19T06:32:29.220Z,21.54
2017-03-19T06:33:39.139Z,21.54
2017-03-19T06:34:49.054Z,21.56
2017-03-19T06:35:59.285Z,21.59
2017-03-19T06:37:09.203Z,21.54
2017-03-19T06:38:18.650Z,21.59
2017-03-19T06:39:28.249Z,21.5
2017-03-19T06:40:38.479Z,21.59
2017-03-19T06:41:48.697Z,21.58
2017-03-19T06:42:58.050Z,21.5
2017-03-19T06:44:08.600Z,21.59
2017-03-19T06:45:18.513Z,21.62
2017-03-19T06:46:27.828Z,21.67
2017-03-19T06:47:37.436Z,21.62
2017-03-19T06:48:47.345Z,21.62
2017-03-19T06:49:57.713Z,21.67
2017-03-19T06:51:07.634Z,21.64
2017-03-19T06:52:17.558Z,21.64
2017-03-19T06:53:27.219Z,21.62
2017-03-19T06:54:37.149Z,21.65
2017-03-19T06:55:47.623Z,21.62
2017-03-19T06:56:57.545Z,21.61
2017-03-19T06:58:07.772Z,21.69
2017-03-19T06:59:17.078Z,21.61
2017-03-19T07:00:27.309Z,21.59
2017-03-19T07:01:37.688Z,21.67
2017-03-19T07:02:47.913Z,21.67
2017-03-19T07:03:57.857Z,21.67
2017-03-19T07:05:07.780Z,21.69
2017-03-19T07:06:17.102Z,21.61
2017-03-19T07:07:26.663Z,21.64
2017-03-19T07:08:36.588Z,21.64
2017-03-19T07:09:46.202Z,21.69
2017-03-19T07:10:56.121Z,21.69
2017-03-19T07:12:06.099Z,21.65
2017-03-19T07:13:17.965Z,21.64
2017-03-19T07:14:28.251Z,21.67
2017-03-19T07:15:37.937Z,21.65
2017-03-19T07:16:47.609Z,21.64
2017-03-19T07:17:57.534Z,21.69
2017-03-19T07:19:07.840Z,21.72
2017-03-19T07:20:17.790Z,21.68
2017-03-19T07:21:28.114Z,21.69
2017-03-19T07:22:38.321Z,21.67
2017-03-19T07:23:48.250Z,21.71
2017-03-19T07:24:58.218Z,21.82
2017-03-19T07:26:08.240Z,21.64
2017-03-19T07:27:17.548Z,21.72
2017-03-19T07:28:27.152Z,21.71
2017-03-19T07:29:36.796Z,21.72
2017-03-19T07:30:47.124Z,21.72
2017-03-19T07:31:56.434Z,21.72
2017-03-19T07:33:06.364Z,21.8
2017-03-19T07:34:16.316Z,21.79
2017-03-19T07:35:26.047Z,21.8
2017-03-19T07:36:35.740Z,21.75
2017-03-19T07:37:45.597Z,21.8
2017-03-19T07:38:55.514Z,21.83
2017-03-19T07:40:05.442Z,21.77
2017-03-19T07:41:15.773Z,21.83
2017-03-19T07:42:25.145Z,21.84
2017-03-19T07:43:34.757Z,21.88
2017-03-19T07:44:44.678Z,21.88
2017-03-19T07:45:54.625Z,21.8
2017-03-19T07:47:04.289Z,21.74
2017-03-19T07:48:14.512Z,21.86
2017-03-19T07:49:24.127Z,21.91
2017-03-19T07:50:33.743Z,21.84
2017-03-19T07:51:43.655Z,21.92
2017-03-19T07:52:53.580Z,21.83
2017-03-19T07:54:03.866Z,21.91
2017-03-19T07:55:13.478Z,21.9
2017-03-19T07:56:23.086Z,21.86
2017-03-19T07:57:33.440Z,21.94
2017-03-19T07:58:43.383Z,21.94
2017-03-19T07:59:53.423Z,22
2017-03-19T08:01:03.068Z,21.98
2017-03-19T08:02:12.970Z,21.99
2017-03-19T08:03:23.209Z,22.14
2017-03-19T08:04:33.439Z,22.12
2017-03-19T08:05:43.256Z,22.2
2017-03-19T08:06:52.905Z,22.15
2017-03-19T08:08:02.829Z,22.3
2017-03-19T08:09:12.761Z,22.3
2017-03-19T08:10:22.690Z,22.3
2017-03-19T08:11:32.772Z,22.39
2017-03-19T08:12:42.712Z,22.46
2017-03-19T08:13:52.672Z,22.42
2017-03-19T08:15:02.285Z,22.55
2017-03-19T08:16:12.507Z,22.6
2017-03-19T08:17:23.086Z,22.57
2017-03-19T08:18:33.033Z,22.61
2017-03-19T08:19:42.952Z,22.6
2017-03-19T08:20:52.589Z,22.6
2017-03-19T08:22:02.815Z,22.72
2017-03-19T08:23:12.675Z,22.67
2017-03-19T08:24:22.905Z,22.77
2017-03-19T08:25:32.519Z,22.79
2017-03-19T08:26:42.194Z,22.8
2017-03-19T08:27:52.113Z,22.92
2017-03-19T08:29:02.763Z,22.94
2017-03-19T08:30:12.737Z,22.9
2017-03-19T08:31:22.662Z,22.98
2017-03-19T08:32:32.573Z,23.04
2017-03-19T08:33:41.889Z,23.01
2017-03-19T08:34:52.089Z,23.05
2017-03-19T08:36:01.700Z,23.17
2017-03-19T08:37:11.604Z,23.15
2017-03-19T08:38:21.523Z,23.19
2017-03-19T08:39:31.150Z,23.13
2017-03-19T08:40:41.115Z,23.23
2017-03-19T08:41:51.394Z,23.27
2017-03-19T08:43:00.712Z,23.22
2017-03-19T08:44:10.969Z,23.22
2017-03-19T08:45:20.300Z,23.25
2017-03-19T08:46:30.366Z,23.27
2017-03-19T08:47:40.286Z,23.38
2017-03-19T08:48:50.519Z,23.39
2017-03-19T08:50:00.440Z,23.38
2017-03-19T08:51:10.348Z,23.38
2017-03-19T08:52:20.220Z,23.43
2017-03-19T08:53:30.144Z,23.47
2017-03-19T08:54:39.746Z,23.54
2017-03-19T08:55:49.674Z,23.54
2017-03-19T08:56:59.289Z,23.58
2017-03-19T08:58:09.633Z,23.61
2017-03-19T08:59:19.562Z,23.65
2017-03-19T09:00:29.180Z,23.61
2017-03-19T09:01:39.395Z,23.73
2017-03-19T09:02:49.306Z,23.63
2017-03-19T09:03:59.704Z,23.75
2017-03-19T09:05:09.623Z,23.61
2017-03-19T09:06:19.551Z,23.8
2017-03-19T09:07:29.176Z,23.83
2017-03-19T09:08:38.481Z,23.73
2017-03-19T09:09:49.073Z,23.83
2017-03-19T09:10:59.705Z,23.84
2017-03-19T09:12:09.315Z,23.87
2017-03-19T09:13:18.003Z,23.9
2017-03-19T09:14:27.609Z,23.87
2017-03-19T09:15:37.839Z,23.88
2017-03-19T09:16:48.105Z,23.9
2017-03-19T09:17:57.759Z,23.94
2017-03-19T09:19:07.688Z,23.83
2017-03-19T09:20:17.612Z,23.9
2017-03-19T09:21:27.565Z,23.93
2017-03-19T09:22:37.798Z,23.97
2017-03-19T09:23:47.738Z,23.9
2017-03-19T09:24:57.664Z,23.9
2017-03-19T09:26:07.264Z,23.9
2017-03-19T09:27:16.694Z,23.85
2017-03-19T09:28:26.626Z,23.91
2017-03-19T09:29:35.942Z,23.88
2017-03-19T09:30:45.544Z,23.91
2017-03-19T09:31:55.156Z,23.83
2017-03-19T09:33:04.810Z,23.93
2017-03-19T09:34:14.163Z,23.9
2017-03-19T09:35:24.094Z,23.93
2017-03-19T09:36:33.713Z,23.91
2017-03-19T09:37:43.651Z,23.84
2017-03-19T09:38:53.722Z,23.84
2017-03-19T09:40:03.651Z,23.85
2017-03-19T09:41:13.958Z,23.94
2017-03-19T09:42:23.572Z,23.9
2017-03-19T09:43:33.187Z,23.85
2017-03-19T09:44:43.209Z,23.94
2017-03-19T09:45:53.138Z,23.84
2017-03-19T09:47:03.090Z,23.88
2017-03-19T09:48:13.305Z,23.83
2017-03-19T09:49:23.236Z,23.87
2017-03-19T09:50:33.612Z,23.87
2017-03-19T09:51:43.537Z,23.87
2017-03-19T09:52:54.128Z,23.84
2017-03-19T09:54:05.332Z,23.84
2017-03-19T09:55:15.466Z,23.88
2017-03-19T09:56:26.183Z,23.85
2017-03-19T09:57:36.463Z,23.88
2017-03-19T09:58:45.785Z,23.88
2017-03-19T09:59:55.911Z,23.87
2017-03-19T10:01:06.169Z,23.88
2017-03-19T10:02:16.134Z,23.85
2017-03-19T10:03:25.742Z,23.85
2017-03-19T10:04:35.667Z,23.91
2017-03-19T10:05:44.673Z,23.85
2017-03-19T10:06:53.978Z,23.9
2017-03-19T10:08:04.050Z,23.94
2017-03-19T10:09:13.979Z,23.88
2017-03-19T10:10:23.918Z,23.94
2017-03-19T10:11:33.873Z,23.9
2017-03-19T10:12:44.134Z,23.87
2017-03-19T10:13:54.740Z,23.88
2017-03-19T10:15:05.609Z,23.87
2017-03-19T10:16:16.140Z,23.76
2017-03-19T10:17:25.758Z,23.6
2017-03-19T10:18:35.121Z,23.31
2017-03-19T10:19:45.156Z,22.91
2017-03-19T10:20:55.100Z,22.61
2017-03-19T10:22:04.717Z,22.24
2017-03-19T10:23:14.946Z,21.94
2017-03-19T10:24:25.167Z,21.77
2017-03-19T10:25:35.879Z,21.58
2017-03-19T10:26:45.170Z,21.35
2017-03-19T10:27:54.787Z,21.28
2017-03-19T10:29:05.012Z,21.04
2017-03-19T10:30:14.944Z,20.92
2017-03-19T10:31:25.536Z,20.69
2017-03-19T10:32:35.486Z,20.72
2017-03-19T10:33:45.734Z,20.57
2017-03-19T10:34:55.985Z,20.36
2017-03-19T10:36:06.253Z,20.32
2017-03-19T10:37:16.426Z,20.36
2017-03-19T10:38:26.666Z,20.2
2017-03-19T10:39:36.613Z,20.16
2017-03-19T10:40:46.564Z,20.06
2017-03-19T10:41:55.911Z,20.05
2017-03-19T10:43:06.105Z,19.99
2017-03-19T10:44:16.058Z,19.92
2017-03-19T10:45:25.985Z,19.86
2017-03-19T10:46:36.213Z,19.84
2017-03-19T10:47:45.552Z,19.73
2017-03-19T10:48:55.604Z,19.66
2017-03-19T10:50:05.213Z,19.62
2017-03-19T10:51:14.848Z,19.65
2017-03-19T10:52:24.763Z,19.65
2017-03-19T10:53:34.398Z,19.59
2017-03-19T10:54:43.953Z,19.61
2017-03-19T10:55:53.899Z,19.55
2017-03-19T10:57:03.854Z,19.54
2017-03-19T10:58:13.761Z,19.44
2017-03-19T10:59:23.376Z,19.44
2017-03-19T11:00:33.435Z,19.43
2017-03-19T11:01:43.370Z,19.32
2017-03-19T11:02:53.000Z,19.36
2017-03-19T11:04:02.653Z,19.4
2017-03-19T11:05:12.612Z,19.36
2017-03-19T11:06:22.986Z,19.23
2017-03-19T11:07:32.923Z,19.22
2017-03-19T11:08:43.562Z,19.31
2017-03-19T11:09:53.553Z,19.4
2017-03-19T11:11:03.477Z,19.39
2017-03-19T11:12:13.383Z,19.43
2017-03-19T11:13:23.297Z,19.32
2017-03-19T11:14:32.920Z,19.39
2017-03-19T11:15:43.149Z,19.29
2017-03-19T11:16:52.548Z,19.32
2017-03-19T11:18:04.537Z,19.36
2017-03-19T11:19:14.217Z,19.29
2017-03-19T11:20:24.534Z,19.26
2017-03-19T11:21:34.936Z,19.31
2017-03-19T11:22:45.340Z,19.22
2017-03-19T11:23:55.362Z,19.21
2017-03-19T11:25:05.806Z,19.28
2017-03-19T11:26:16.124Z,19.25
2017-03-19T11:27:25.763Z,19.18
2017-03-19T11:28:35.087Z,19.22
2017-03-19T11:29:45.429Z,19.22
2017-03-19T11:30:56.226Z,19.21
2017-03-19T11:32:07.106Z,19.14
2017-03-19T11:33:17.247Z,19.19
2017-03-19T11:34:27.908Z,19.14
2017-03-19T11:35:38.694Z,19
2017-03-19T11:36:48.688Z,19.07
2017-03-19T11:37:58.635Z,19.06
2017-03-19T11:39:08.596Z,19.02
2017-03-19T11:40:19.103Z,19.07
2017-03-19T11:41:30.101Z,19.1
2017-03-19T11:42:40.771Z,19.04
2017-03-19T11:43:50.789Z,19
2017-03-19T11:45:01.137Z,19
2017-03-19T11:46:12.069Z,19.07
2017-03-19T11:47:21.671Z,19.02
2017-03-19T11:48:31.123Z,18.94
2017-03-19T11:49:41.055Z,19
2017-03-19T11:50:50.978Z,19.02
2017-03-19T11:52:00.918Z,18.92
2017-03-19T11:53:11.025Z,18.98
2017-03-19T11:54:21.262Z,18.94
2017-03-19T11:55:31.797Z,18.98
2017-03-19T11:56:41.758Z,18.95
2017-03-19T11:57:51.405Z,18.94
2017-03-19T11:59:02.497Z,18.99
2017-03-19T12:00:12.121Z,18.99
2017-03-19T12:01:22.054Z,18.99
2017-03-19T12:02:32.417Z,18.95
2017-03-19T12:03:42.113Z,19.02
2017-03-19T12:04:52.324Z,18.95
2017-03-19T12:06:02.314Z,18.95
2017-03-19T12:07:12.237Z,18.98
2017-03-19T12:08:22.208Z,18.95
2017-03-19T12:09:31.903Z,18.94
2017-03-19T12:10:42.176Z,18.8
2017-03-19T12:11:52.120Z,18.94
2017-03-19T12:13:01.745Z,19.1
2017-03-19T12:14:11.120Z,19.28
2017-03-19T12:15:21.055Z,19.36
2017-03-19T12:16:30.849Z,19.46
2017-03-19T12:17:40.819Z,19.68
2017-03-19T12:18:50.239Z,19.77
2017-03-19T12:20:00.225Z,19.96
2017-03-19T12:21:09.829Z,20.16
2017-03-19T12:22:20.165Z,20.36
2017-03-19T12:23:29.783Z,20.54
2017-03-19T12:24:39.414Z,20.61
2017-03-19T12:25:49.324Z,20.72
2017-03-19T12:26:58.939Z,20.87
2017-03-19T12:28:09.142Z,20.94
2017-03-19T12:29:19.064Z,21.01
2017-03-19T12:30:29.307Z,21.03
2017-03-19T12:31:38.924Z,21.27
2017-03-19T12:32:48.531Z,21.31
2017-03-19T12:33:58.566Z,21.32
2017-03-19T12:35:08.493Z,21.42
2017-03-19T12:36:18.108Z,21.47
2017-03-19T12:37:28.050Z,21.52
2017-03-19T12:38:37.970Z,21.58
2017-03-19T12:39:47.982Z,21.61
2017-03-19T12:40:57.596Z,21.64
2017-03-19T12:42:07.525Z,21.69
2017-03-19T12:43:17.134Z,21.71
2017-03-19T12:44:27.064Z,21.84
2017-03-19T12:45:37.145Z,21.83
2017-03-19T12:46:47.374Z,21.9
2017-03-19T12:47:57.300Z,21.9
2017-03-19T12:49:06.983Z,22.02
2017-03-19T12:50:17.251Z,22.06
2017-03-19T12:51:27.152Z,22.06
2017-03-19T12:52:36.796Z,22.18
2017-03-19T12:53:46.721Z,22.21
2017-03-19T12:54:56.343Z,22.25
2017-03-19T12:56:06.589Z,22.31
2017-03-19T12:57:16.451Z,22.37
2017-03-19T12:58:26.677Z,22.45
2017-03-19T12:59:36.904Z,22.45
2017-03-19T13:00:46.521Z,22.46
2017-03-19T13:01:56.122Z,22.52
2017-03-19T13:03:05.881Z,22.6
2017-03-19T13:04:15.808Z,22.54
2017-03-19T13:05:25.730Z,22.54
2017-03-19T13:06:35.943Z,22.58
2017-03-19T13:07:45.873Z,22.55
2017-03-19T13:08:56.055Z,22.6
2017-03-19T13:10:05.989Z,22.58
2017-03-19T13:11:15.607Z,22.55
2017-03-19T13:12:25.538Z,22.61
2017-03-19T13:13:35.780Z,22.76
2017-03-19T13:14:46.454Z,22.67
2017-03-19T13:15:56.391Z,22.7
2017-03-19T13:17:06.699Z,22.73
2017-03-19T13:18:16.348Z,22.77
2017-03-19T13:19:26.324Z,22.77
2017-03-19T13:20:36.694Z,22.85
2017-03-19T13:21:46.622Z,22.82
2017-03-19T13:22:56.616Z,22.88
2017-03-19T13:24:06.246Z,22.85
2017-03-19T13:25:16.226Z,22.86
2017-03-19T13:26:26.144Z,22.88
2017-03-19T13:27:36.404Z,22.91
2017-03-19T13:28:46.629Z,22.86
2017-03-19T13:29:56.308Z,22.94
2017-03-19T13:31:06.239Z,22.92
2017-03-19T13:32:16.808Z,23
2017-03-19T13:33:26.742Z,23.01
2017-03-19T13:34:36.362Z,23.07
2017-03-19T13:35:45.974Z,23.02
2017-03-19T13:36:55.905Z,23.07
2017-03-19T13:38:05.353Z,23.09
2017-03-19T13:39:15.282Z,23.15
2017-03-19T13:40:25.200Z,23.04
2017-03-19T13:41:35.113Z,23.09
2017-03-19T13:42:44.773Z,23.02
2017-03-19T13:43:55.277Z,22.97
2017-03-19T13:45:05.192Z,22.94
2017-03-19T13:46:15.423Z,22.77
2017-03-19T13:47:25.347Z,22.77
2017-03-19T13:48:35.299Z,22.82
2017-03-19T13:49:46.199Z,22.82
2017-03-19T13:50:56.894Z,22.86
2017-03-19T13:52:07.183Z,22.91
2017-03-19T13:53:16.796Z,22.9
2017-03-19T13:54:26.829Z,22.94
2017-03-19T13:55:37.170Z,22.97
2017-03-19T13:56:46.777Z,23
2017-03-19T13:57:56.493Z,22.98
2017-03-19T13:59:05.835Z,23.05
2017-03-19T14:00:15.385Z,23.05
2017-03-19T14:01:26.312Z,23.01
2017-03-19T14:02:35.635Z,23.12
2017-03-19T14:03:45.395Z,23.1
2017-03-19T14:04:55.311Z,23.04
2017-03-19T14:06:05.387Z,23.13
2017-03-19T14:07:16.054Z,23.07
2017-03-19T14:08:25.747Z,23.15
2017-03-19T14:09:35.684Z,23.05
2017-03-19T14:10:45.637Z,23.15
2017-03-19T14:11:55.870Z,23.13
2017-03-19T14:13:06.397Z,23.12
2017-03-19T14:14:16.623Z,23.15
2017-03-19T14:15:26.844Z,23.16
2017-03-19T14:16:36.799Z,23.27
2017-03-19T14:17:46.432Z,23.15
2017-03-19T14:18:56.615Z,23.2
2017-03-19T14:20:06.569Z,23.15
2017-03-19T14:21:16.519Z,23.22
2017-03-19T14:22:26.389Z,23.2
2017-03-19T14:23:35.704Z,23.25
2017-03-19T14:24:46.534Z,23.16
2017-03-19T14:25:57.304Z,23.22
2017-03-19T14:27:08.174Z,23.23
2017-03-19T14:28:17.823Z,23.15
2017-03-19T14:29:27.919Z,23.12
2017-03-19T14:30:38.693Z,23.16
2017-03-19T14:31:48.684Z,23.25
2017-03-19T14:32:59.206Z,23.19
2017-03-19T14:34:08.837Z,23.2
2017-03-19T14:35:19.142Z,23.28
2017-03-19T14:36:30.096Z,23.17
2017-03-19T14:37:40.136Z,23.2
2017-03-19T14:38:49.869Z,23.23
2017-03-19T14:39:59.895Z,23.25
2017-03-19T14:41:09.207Z,23.16
2017-03-19T14:42:19.274Z,23.19
2017-03-19T14:43:28.904Z,23.19
2017-03-19T14:44:38.845Z,23.16
2017-03-19T14:45:48.148Z,23.27
2017-03-19T14:46:58.388Z,23.31
2017-03-19T14:48:09.226Z,23.23
2017-03-19T14:49:18.612Z,23.31
2017-03-19T14:50:28.545Z,23.22
2017-03-19T14:51:38.776Z,23.23
2017-03-19T14:52:48.832Z,23.16
2017-03-19T14:53:59.977Z,23.17
2017-03-19T14:55:09.939Z,23.22
2017-03-19T14:56:19.877Z,23.2
2017-03-19T14:57:30.124Z,23.2
2017-03-19T14:58:39.728Z,23.19
2017-03-19T14:59:49.903Z,23.17
2017-03-19T15:01:00.167Z,23.25
2017-03-19T15:02:10.107Z,23.28
2017-03-19T15:03:20.334Z,23.31
2017-03-19T15:04:30.572Z,23.2